Thedford, Canada
Current Conditions -  °F | °C
As of 6:33 AM on Tuesday 21 Oct 2014 (Local Time) from CYZR Reporting Station
Overcast Overcast  
Wind Chill:   Ceiling: 2300
Heat Index:   Visibility: 9mi
Dew Point:   Wind: 22mph
Humidity: 87%   Direction: 350°N
Pressure: 29.89"   Gusts: NA
Location:  43.17°N, 81.85°W
Report Text: CYZR 211033Z AUTO 35019KT 9SM BKN023 OVC029 09/07 A2989 RMK SLP123
Loading
Personal Weather Stations






























Interactive Weather Map
Tropical Storm Tracking
New forecast layout! Learn more

10-Day Weather Forecast

Advertisements
Track Severe Weather on mobile